sensor_id;sensor_type;location;lat;lon;timestamp;temperature;humidity
53035;DHT22;38923;53.236;6.506;2022-07-10T00:00:28;14.30;99.90
53035;DHT22;38923;53.236;6.506;2022-07-10T00:02:55;14.20;99.90
53035;DHT22;38923;53.236;6.506;2022-07-10T00:05:22;14.20;99.90
53035;DHT22;38923;53.236;6.506;2022-07-10T00:07:48;14.20;99.90
53035;DHT22;38923;53.236;6.506;2022-07-10T00:10:16;14.20;99.90
53035;DHT22;38923;53.236;6.506;2022-07-10T00:12:42;14.20;99.90
53035;DHT22;38923;53.236;6.506;2022-07-10T00:15:08;14.20;99.90
53035;DHT22;38923;53.236;6.506;2022-07-10T00:20:03;14.20;99.90
53035;DHT22;38923;53.236;6.506;2022-07-10T00:22:29;14.20;99.90
53035;DHT22;38923;53.236;6.506;2022-07-10T00:24:54;14.20;99.90
53035;DHT22;38923;53.236;6.506;2022-07-10T00:27:20;14.20;99.90
53035;DHT22;38923;53.236;6.506;2022-07-10T00:29:46;14.20;99.90
53035;DHT22;38923;53.236;6.506;2022-07-10T00:32:12;14.20;99.90
53035;DHT22;38923;53.236;6.506;2022-07-10T00:34:37;14.10;99.90
53035;DHT22;38923;53.236;6.506;2022-07-10T00:37:04;14.20;99.90
53035;DHT22;38923;53.236;6.506;2022-07-10T00:39:30;14.20;99.90
53035;DHT22;38923;53.236;6.506;2022-07-10T00:42:06;14.20;99.90
53035;DHT22;38923;53.236;6.506;2022-07-10T00:44:32;14.20;99.90
53035;DHT22;38923;53.236;6.506;2022-07-10T00:46:57;14.20;99.90
53035;DHT22;38923;53.236;6.506;2022-07-10T00:49:23;14.20;99.90
53035;DHT22;38923;53.236;6.506;2022-07-10T00:51:49;14.20;99.90
53035;DHT22;38923;53.236;6.506;2022-07-10T00:54:15;14.20;99.90
53035;DHT22;38923;53.236;6.506;2022-07-10T00:56:42;14.10;99.90
53035;DHT22;38923;53.236;6.506;2022-07-10T00:59:09;14.10;99.90
53035;DHT22;38923;53.236;6.506;2022-07-10T01:01:35;14.10;99.90
53035;DHT22;38923;53.236;6.506;2022-07-10T01:04:02;14.10;99.90
53035;DHT22;38923;53.236;6.506;2022-07-10T01:06:27;14.10;99.90
53035;DHT22;38923;53.236;6.506;2022-07-10T01:08:53;14.00;99.90
53035;DHT22;38923;53.236;6.506;2022-07-10T01:11:20;14.00;99.90
53035;DHT22;38923;53.236;6.506;2022-07-10T01:13:47;14.00;99.90
53035;DHT22;38923;53.236;6.506;2022-07-10T01:16:12;14.00;99.90
53035;DHT22;38923;53.236;6.506;2022-07-10T01:18:39;14.00;99.90
53035;DHT22;38923;53.236;6.506;2022-07-10T01:21:05;13.90;99.90
53035;DHT22;38923;53.236;6.506;2022-07-10T01:23:30;13.90;99.90
53035;DHT22;38923;53.236;6.506;2022-07-10T01:25:56;13.90;99.90
53035;DHT22;38923;53.236;6.506;2022-07-10T01:28:22;14.40;99.90
53035;DHT22;38923;53.236;6.506;2022-07-10T01:30:49;13.90;99.90
53035;DHT22;38923;53.236;6.506;2022-07-10T01:33:15;13.80;99.90
53035;DHT22;38923;53.236;6.506;2022-07-10T01:35:41;13.80;99.90
53035;DHT22;38923;53.236;6.506;2022-07-10T01:38:07;13.80;99.90
53035;DHT22;38923;53.236;6.506;2022-07-10T01:40:32;13.80;99.90
53035;DHT22;38923;53.236;6.506;2022-07-10T01:42:58;13.80;99.90
53035;DHT22;38923;53.236;6.506;2022-07-10T01:45:24;13.80;99.90
53035;DHT22;38923;53.236;6.506;2022-07-10T01:47:50;13.80;99.90
53035;DHT22;38923;53.236;6.506;2022-07-10T01:50:16;13.80;99.90
53035;DHT22;38923;53.236;6.506;2022-07-10T01:52:42;13.70;99.90
53035;DHT22;38923;53.236;6.506;2022-07-10T01:55:08;13.70;99.90
53035;DHT22;38923;53.236;6.506;2022-07-10T01:57:34;13.70;99.90
53035;DHT22;38923;53.236;6.506;2022-07-10T02:00:00;13.70;99.90
53035;DHT22;38923;53.236;6.506;2022-07-10T02:02:25;13.60;99.90
53035;DHT22;38923;53.236;6.506;2022-07-10T02:04:51;13.60;99.90
53035;DHT22;38923;53.236;6.506;2022-07-10T02:07:18;13.60;99.90
53035;DHT22;38923;53.236;6.506;2022-07-10T02:09:45;13.60;99.90
53035;DHT22;38923;53.236;6.506;2022-07-10T02:12:13;13.60;99.90
53035;DHT22;38923;53.236;6.506;2022-07-10T02:14:39;13.50;99.90
53035;DHT22;38923;53.236;6.506;2022-07-10T02:17:06;13.50;99.90
53035;DHT22;38923;53.236;6.506;2022-07-10T02:19:33;13.50;99.90
53035;DHT22;38923;53.236;6.506;2022-07-10T02:21:59;13.40;99.90
53035;DHT22;38923;53.236;6.506;2022-07-10T02:24:25;13.40;99.90
53035;DHT22;38923;53.236;6.506;2022-07-10T02:26:51;13.40;99.90
53035;DHT22;38923;53.236;6.506;2022-07-10T02:29:17;13.40;99.90
53035;DHT22;38923;53.236;6.506;2022-07-10T02:31:43;13.30;99.90
53035;DHT22;38923;53.236;6.506;2022-07-10T02:34:12;13.30;99.90
53035;DHT22;38923;53.236;6.506;2022-07-10T02:36:41;13.30;99.90
53035;DHT22;38923;53.236;6.506;2022-07-10T02:39:07;13.30;99.90
53035;DHT22;38923;53.236;6.506;2022-07-10T02:41:34;13.30;99.90
53035;DHT22;38923;53.236;6.506;2022-07-10T02:44:02;13.40;99.90
53035;DHT22;38923;53.236;6.506;2022-07-10T02:46:27;13.40;99.90
53035;DHT22;38923;53.236;6.506;2022-07-10T02:48:53;13.40;99.90
53035;DHT22;38923;53.236;6.506;2022-07-10T02:51:19;13.40;99.90
53035;DHT22;38923;53.236;6.506;2022-07-10T02:53:45;14.00;99.90
53035;DHT22;38923;53.236;6.506;2022-07-10T02:56:10;13.50;99.90
53035;DHT22;38923;53.236;6.506;2022-07-10T02:58:38;13.50;99.90
53035;DHT22;38923;53.236;6.506;2022-07-10T03:01:04;13.50;99.90
53035;DHT22;38923;53.236;6.506;2022-07-10T03:03:29;13.50;99.90
53035;DHT22;38923;53.236;6.506;2022-07-10T03:05:55;13.50;99.90
53035;DHT22;38923;53.236;6.506;2022-07-10T03:08:21;13.50;99.90
53035;DHT22;38923;53.236;6.506;2022-07-10T03:10:47;13.50;99.90
53035;DHT22;38923;53.236;6.506;2022-07-10T03:13:12;13.50;99.90
53035;DHT22;38923;53.236;6.506;2022-07-10T03:15:38;13.50;99.90
53035;DHT22;38923;53.236;6.506;2022-07-10T03:18:04;13.50;99.90
53035;DHT22;38923;53.236;6.506;2022-07-10T03:20:30;13.60;99.90
53035;DHT22;38923;53.236;6.506;2022-07-10T03:22:55;13.60;99.90
53035;DHT22;38923;53.236;6.506;2022-07-10T03:25:21;13.70;99.90
53035;DHT22;38923;53.236;6.506;2022-07-10T03:27:47;13.70;99.90
53035;DHT22;38923;53.236;6.506;2022-07-10T03:30:13;13.80;99.90
53035;DHT22;38923;53.236;6.506;2022-07-10T03:32:38;13.80;99.90
53035;DHT22;38923;53.236;6.506;2022-07-10T03:35:04;13.90;99.90
53035;DHT22;38923;53.236;6.506;2022-07-10T03:37:30;13.90;99.90
53035;DHT22;38923;53.236;6.506;2022-07-10T03:39:56;14.00;99.90
53035;DHT22;38923;53.236;6.506;2022-07-10T03:42:21;14.10;99.90
53035;DHT22;38923;53.236;6.506;2022-07-10T03:44:47;14.10;99.90
53035;DHT22;38923;53.236;6.506;2022-07-10T03:47:13;14.10;99.90
53035;DHT22;38923;53.236;6.506;2022-07-10T03:49:38;14.20;99.90
53035;DHT22;38923;53.236;6.506;2022-07-10T03:52:05;14.20;99.90
53035;DHT22;38923;53.236;6.506;2022-07-10T03:54:31;14.30;99.90
53035;DHT22;38923;53.236;6.506;2022-07-10T03:56:57;14.30;99.90
53035;DHT22;38923;53.236;6.506;2022-07-10T03:59:42;14.40;99.90
53035;DHT22;38923;53.236;6.506;2022-07-10T04:02:08;14.40;99.90
53035;DHT22;38923;53.236;6.506;2022-07-10T04:04:33;14.40;99.90
53035;DHT22;38923;53.236;6.506;2022-07-10T04:06:59;14.40;99.90
53035;DHT22;38923;53.236;6.506;2022-07-10T04:09:25;14.40;99.90
53035;DHT22;38923;53.236;6.506;2022-07-10T04:11:51;14.40;99.90
53035;DHT22;38923;53.236;6.506;2022-07-10T04:14:17;14.50;99.90
53035;DHT22;38923;53.236;6.506;2022-07-10T04:16:43;14.90;99.90
53035;DHT22;38923;53.236;6.506;2022-07-10T04:19:08;14.50;99.90
53035;DHT22;38923;53.236;6.506;2022-07-10T04:21:34;14.50;99.90
53035;DHT22;38923;53.236;6.506;2022-07-10T04:24:00;14.60;99.90
53035;DHT22;38923;53.236;6.506;2022-07-10T04:26:26;14.60;99.90
53035;DHT22;38923;53.236;6.506;2022-07-10T04:28:51;14.60;99.90
53035;DHT22;38923;53.236;6.506;2022-07-10T04:31:17;14.60;99.90
53035;DHT22;38923;53.236;6.506;2022-07-10T04:33:43;14.60;99.90
53035;DHT22;38923;53.236;6.506;2022-07-10T04:36:08;14.60;99.90
53035;DHT22;38923;53.236;6.506;2022-07-10T04:38:34;14.70;99.90
53035;DHT22;38923;53.236;6.506;2022-07-10T04:41:00;14.70;99.90
53035;DHT22;38923;53.236;6.506;2022-07-10T04:43:26;14.70;99.90
53035;DHT22;38923;53.236;6.506;2022-07-10T04:45:52;14.70;99.90
53035;DHT22;38923;53.236;6.506;2022-07-10T04:48:17;14.70;99.90
53035;DHT22;38923;53.236;6.506;2022-07-10T04:50:43;14.70;99.90
53035;DHT22;38923;53.236;6.506;2022-07-10T04:53:09;14.80;99.90
53035;DHT22;38923;53.236;6.506;2022-07-10T04:55:35;14.80;99.90
53035;DHT22;38923;53.236;6.506;2022-07-10T04:58:01;15.60;99.90
53035;DHT22;38923;53.236;6.506;2022-07-10T05:00:26;14.80;99.90
53035;DHT22;38923;53.236;6.506;2022-07-10T05:02:52;14.80;99.90
53035;DHT22;38923;53.236;6.506;2022-07-10T05:05:18;14.80;99.90
53035;DHT22;38923;53.236;6.506;2022-07-10T05:07:43;14.80;99.90
53035;DHT22;38923;53.236;6.506;2022-07-10T05:10:09;14.80;99.90
53035;DHT22;38923;53.236;6.506;2022-07-10T05:12:35;14.90;99.90
53035;DHT22;38923;53.236;6.506;2022-07-10T05:15:01;14.80;99.90
53035;DHT22;38923;53.236;6.506;2022-07-10T05:17:27;14.80;99.90
53035;DHT22;38923;53.236;6.506;2022-07-10T05:19:57;14.90;99.90
53035;DHT22;38923;53.236;6.506;2022-07-10T05:22:24;14.80;99.90
53035;DHT22;38923;53.236;6.506;2022-07-10T05:24:50;14.90;99.90
53035;DHT22;38923;53.236;6.506;2022-07-10T05:27:16;14.90;99.90
53035;DHT22;38923;53.236;6.506;2022-07-10T05:29:46;14.90;99.90
53035;DHT22;38923;53.236;6.506;2022-07-10T05:32:12;14.90;99.90
53035;DHT22;38923;53.236;6.506;2022-07-10T05:34:38;15.00;99.90
53035;DHT22;38923;53.236;6.506;2022-07-10T05:37:04;14.90;99.90
53035;DHT22;38923;53.236;6.506;2022-07-10T05:39:30;15.00;99.90
53035;DHT22;38923;53.236;6.506;2022-07-10T05:41:56;15.00;99.90
53035;DHT22;38923;53.236;6.506;2022-07-10T05:44:23;15.00;99.90
53035;DHT22;38923;53.236;6.506;2022-07-10T05:46:50;15.10;99.90
53035;DHT22;38923;53.236;6.506;2022-07-10T05:49:16;15.10;99.90
53035;DHT22;38923;53.236;6.506;2022-07-10T05:51:42;15.10;99.90
53035;DHT22;38923;53.236;6.506;2022-07-10T05:54:08;15.10;99.90
53035;DHT22;38923;53.236;6.506;2022-07-10T05:56:34;15.10;99.90
53035;DHT22;38923;53.236;6.506;2022-07-10T05:59:00;15.20;99.90
53035;DHT22;38923;53.236;6.506;2022-07-10T06:01:26;15.20;99.90
53035;DHT22;38923;53.236;6.506;2022-07-10T06:03:52;15.10;99.90
53035;DHT22;38923;53.236;6.506;2022-07-10T06:06:18;15.10;99.90
53035;DHT22;38923;53.236;6.506;2022-07-10T06:08:44;15.10;99.90
53035;DHT22;38923;53.236;6.506;2022-07-10T06:11:10;15.00;99.90
53035;DHT22;38923;53.236;6.506;2022-07-10T06:13:37;15.00;99.90
53035;DHT22;38923;53.236;6.506;2022-07-10T06:16:03;15.00;99.90
53035;DHT22;38923;53.236;6.506;2022-07-10T06:18:33;15.00;99.90
53035;DHT22;38923;53.236;6.506;2022-07-10T06:20:59;15.00;99.90
53035;DHT22;38923;53.236;6.506;2022-07-10T06:23:25;15.10;99.90
53035;DHT22;38923;53.236;6.506;2022-07-10T06:25:50;15.10;99.90
53035;DHT22;38923;53.236;6.506;2022-07-10T06:28:17;15.10;99.90
53035;DHT22;38923;53.236;6.506;2022-07-10T06:30:43;15.20;99.90
53035;DHT22;38923;53.236;6.506;2022-07-10T06:33:09;15.20;99.90
53035;DHT22;38923;53.236;6.506;2022-07-10T06:35:35;15.20;99.90
53035;DHT22;38923;53.236;6.506;2022-07-10T06:38:01;15.20;99.90
53035;DHT22;38923;53.236;6.506;2022-07-10T06:40:36;15.20;99.90
53035;DHT22;38923;53.236;6.506;2022-07-10T06:43:10;15.20;99.90
53035;DHT22;38923;53.236;6.506;2022-07-10T06:45:36;15.30;99.90
53035;DHT22;38923;53.236;6.506;2022-07-10T06:48:01;15.20;99.90
53035;DHT22;38923;53.236;6.506;2022-07-10T06:50:31;15.30;99.90
53035;DHT22;38923;53.236;6.506;2022-07-10T06:52:58;15.30;99.90
53035;DHT22;38923;53.236;6.506;2022-07-10T06:55:24;15.30;99.90
53035;DHT22;38923;53.236;6.506;2022-07-10T06:57:51;15.30;99.90
53035;DHT22;38923;53.236;6.506;2022-07-10T07:00:16;15.40;99.90
53035;DHT22;38923;53.236;6.506;2022-07-10T07:02:42;15.40;99.90
53035;DHT22;38923;53.236;6.506;2022-07-10T07:05:09;15.40;99.90
53035;DHT22;38923;53.236;6.506;2022-07-10T07:07:35;15.30;99.90
53035;DHT22;38923;53.236;6.506;2022-07-10T07:10:02;15.30;99.90
53035;DHT22;38923;53.236;6.506;2022-07-10T07:12:28;15.30;99.90
53035;DHT22;38923;53.236;6.506;2022-07-10T07:14:57;15.20;99.90
53035;DHT22;38923;53.236;6.506;2022-07-10T07:17:42;15.10;99.90
53035;DHT22;38923;53.236;6.506;2022-07-10T07:20:25;15.00;99.90
53035;DHT22;38923;53.236;6.506;2022-07-10T07:23:12;14.90;99.90
53035;DHT22;38923;53.236;6.506;2022-07-10T07:25:39;14.90;99.90
53035;DHT22;38923;53.236;6.506;2022-07-10T07:28:08;14.90;99.90
53035;DHT22;38923;53.236;6.506;2022-07-10T07:30:35;14.90;99.90
53035;DHT22;38923;53.236;6.506;2022-07-10T07:33:00;14.90;99.90
53035;DHT22;38923;53.236;6.506;2022-07-10T07:35:26;15.00;99.90
53035;DHT22;38923;53.236;6.506;2022-07-10T07:37:52;15.00;99.90
53035;DHT22;38923;53.236;6.506;2022-07-10T07:40:20;15.00;99.90
53035;DHT22;38923;53.236;6.506;2022-07-10T07:42:48;15.00;99.90
53035;DHT22;38923;53.236;6.506;2022-07-10T07:45:14;14.30;99.90
53035;DHT22;38923;53.236;6.506;2022-07-10T07:47:48;15.10;99.90
53035;DHT22;38923;53.236;6.506;2022-07-10T07:50:19;15.10;99.90
53035;DHT22;38923;53.236;6.506;2022-07-10T07:52:46;15.10;99.90
53035;DHT22;38923;53.236;6.506;2022-07-10T07:55:13;15.10;99.90
53035;DHT22;38923;53.236;6.506;2022-07-10T07:57:41;15.20;99.90
53035;DHT22;38923;53.236;6.506;2022-07-10T08:00:13;15.20;99.90
53035;DHT22;38923;53.236;6.506;2022-07-10T08:02:40;15.30;99.90
53035;DHT22;38923;53.236;6.506;2022-07-10T08:05:07;15.30;99.90
53035;DHT22;38923;53.236;6.506;2022-07-10T08:07:44;15.30;99.90
53035;DHT22;38923;53.236;6.506;2022-07-10T08:10:15;15.40;99.90
53035;DHT22;38923;53.236;6.506;2022-07-10T08:12:42;15.40;99.90
53035;DHT22;38923;53.236;6.506;2022-07-10T08:15:12;15.30;99.90
53035;DHT22;38923;53.236;6.506;2022-07-10T08:17:41;15.30;99.90
53035;DHT22;38923;53.236;6.506;2022-07-10T08:20:10;15.30;99.90
53035;DHT22;38923;53.236;6.506;2022-07-10T08:22:37;15.30;99.90
53035;DHT22;38923;53.236;6.506;2022-07-10T08:25:02;15.40;99.90
53035;DHT22;38923;53.236;6.506;2022-07-10T08:27:28;15.50;99.90
53035;DHT22;38923;53.236;6.506;2022-07-10T08:29:54;15.60;99.90
53035;DHT22;38923;53.236;6.506;2022-07-10T08:32:20;15.30;99.90
53035;DHT22;38923;53.236;6.506;2022-07-10T08:35:01;15.70;99.90
53035;DHT22;38923;53.236;6.506;2022-07-10T08:37:26;15.70;99.90
53035;DHT22;38923;53.236;6.506;2022-07-10T08:39:52;15.70;99.90
53035;DHT22;38923;53.236;6.506;2022-07-10T08:42:19;15.80;99.90
53035;DHT22;38923;53.236;6.506;2022-07-10T08:44:48;15.80;99.90
53035;DHT22;38923;53.236;6.506;2022-07-10T08:47:14;15.80;99.90
53035;DHT22;38923;53.236;6.506;2022-07-10T08:49:46;15.90;99.90
53035;DHT22;38923;53.236;6.506;2022-07-10T08:52:44;15.90;99.90
53035;DHT22;38923;53.236;6.506;2022-07-10T08:55:14;16.00;99.90
53035;DHT22;38923;53.236;6.506;2022-07-10T08:57:58;16.00;99.90
53035;DHT22;38923;53.236;6.506;2022-07-10T09:00:25;16.10;99.90
53035;DHT22;38923;53.236;6.506;2022-07-10T09:02:53;16.10;99.90
53035;DHT22;38923;53.236;6.506;2022-07-10T09:05:19;16.10;99.90
53035;DHT22;38923;53.236;6.506;2022-07-10T09:07:45;16.20;99.90
53035;DHT22;38923;53.236;6.506;2022-07-10T09:10:11;16.20;99.90
53035;DHT22;38923;53.236;6.506;2022-07-10T09:12:54;16.30;99.90
53035;DHT22;38923;53.236;6.506;2022-07-10T09:15:23;16.30;99.90
53035;DHT22;38923;53.236;6.506;2022-07-10T09:18:00;16.30;99.90
53035;DHT22;38923;53.236;6.506;2022-07-10T09:20:39;16.40;99.90
53035;DHT22;38923;53.236;6.506;2022-07-10T09:23:16;16.40;99.90
53035;DHT22;38923;53.236;6.506;2022-07-10T09:25:50;16.30;99.90
53035;DHT22;38923;53.236;6.506;2022-07-10T09:28:21;16.30;99.90
53035;DHT22;38923;53.236;6.506;2022-07-10T09:30:48;16.20;99.90
53035;DHT22;38923;53.236;6.506;2022-07-10T09:33:24;16.20;99.90
53035;DHT22;38923;53.236;6.506;2022-07-10T09:36:04;16.20;99.90
53035;DHT22;38923;53.236;6.506;2022-07-10T09:41:19;16.20;99.90
53035;DHT22;38923;53.236;6.506;2022-07-10T09:43:53;16.20;99.90
53035;DHT22;38923;53.236;6.506;2022-07-10T09:46:21;16.10;99.90
53035;DHT22;38923;53.236;6.506;2022-07-10T09:48:48;16.10;99.90
53035;DHT22;38923;53.236;6.506;2022-07-10T09:51:26;16.10;99.90
53035;DHT22;38923;53.236;6.506;2022-07-10T09:53:54;16.10;99.90
53035;DHT22;38923;53.236;6.506;2022-07-10T09:56:20;15.90;99.90
53035;DHT22;38923;53.236;6.506;2022-07-10T09:58:50;15.80;99.90
53035;DHT22;38923;53.236;6.506;2022-07-10T10:01:18;16.00;99.90
53035;DHT22;38923;53.236;6.506;2022-07-10T10:03:45;15.70;99.90
53035;DHT22;38923;53.236;6.506;2022-07-10T10:06:16;15.70;99.90
53035;DHT22;38923;53.236;6.506;2022-07-10T10:09:06;15.70;99.90
53035;DHT22;38923;53.236;6.506;2022-07-10T10:11:35;15.70;99.90
53035;DHT22;38923;53.236;6.506;2022-07-10T10:14:03;15.60;99.90
53035;DHT22;38923;53.236;6.506;2022-07-10T10:16:32;15.80;99.90
53035;DHT22;38923;53.236;6.506;2022-07-10T10:18:58;15.80;99.90
53035;DHT22;38923;53.236;6.506;2022-07-10T10:21:43;15.90;99.90
53035;DHT22;38923;53.236;6.506;2022-07-10T10:24:09;15.90;99.90
53035;DHT22;38923;53.236;6.506;2022-07-10T10:26:36;15.90;99.90
53035;DHT22;38923;53.236;6.506;2022-07-10T10:29:03;16.00;99.90
53035;DHT22;38923;53.236;6.506;2022-07-10T10:31:31;16.10;99.90
53035;DHT22;38923;53.236;6.506;2022-07-10T10:33:57;16.20;99.90
53035;DHT22;38923;53.236;6.506;2022-07-10T10:39:15;16.40;99.90
53035;DHT22;38923;53.236;6.506;2022-07-10T10:41:54;16.40;99.90
53035;DHT22;38923;53.236;6.506;2022-07-10T10:44:27;16.50;99.90
53035;DHT22;38923;53.236;6.506;2022-07-10T10:47:04;16.50;99.90
53035;DHT22;38923;53.236;6.506;2022-07-10T10:49:54;16.40;99.90
53035;DHT22;38923;53.236;6.506;2022-07-10T10:52:22;16.30;99.90
53035;DHT22;38923;53.236;6.506;2022-07-10T10:59:57;16.20;99.90
53035;DHT22;38923;53.236;6.506;2022-07-10T11:02:32;16.10;99.90
53035;DHT22;38923;53.236;6.506;2022-07-10T11:08:03;16.10;99.90
53035;DHT22;38923;53.236;6.506;2022-07-10T11:10:43;16.20;99.90
53035;DHT22;38923;53.236;6.506;2022-07-10T11:13:10;16.20;99.90
53035;DHT22;38923;53.236;6.506;2022-07-10T11:15:47;16.40;99.90
53035;DHT22;38923;53.236;6.506;2022-07-10T11:18:18;16.50;99.90
53035;DHT22;38923;53.236;6.506;2022-07-10T11:20:48;16.60;99.90
53035;DHT22;38923;53.236;6.506;2022-07-10T11:26:41;16.70;99.90
53035;DHT22;38923;53.236;6.506;2022-07-10T11:29:18;16.70;99.90
53035;DHT22;38923;53.236;6.506;2022-07-10T11:31:54;16.70;99.90
53035;DHT22;38923;53.236;6.506;2022-07-10T11:34:21;16.80;99.90
53035;DHT22;38923;53.236;6.506;2022-07-10T11:36:48;16.80;99.90
53035;DHT22;38923;53.236;6.506;2022-07-10T11:39:14;16.90;99.90
53035;DHT22;38923;53.236;6.506;2022-07-10T11:41:44;16.90;99.90
53035;DHT22;38923;53.236;6.506;2022-07-10T11:44:18;16.90;99.90
53035;DHT22;38923;53.236;6.506;2022-07-10T11:46:45;16.90;99.90
53035;DHT22;38923;53.236;6.506;2022-07-10T11:49:14;16.90;99.90
53035;DHT22;38923;53.236;6.506;2022-07-10T11:51:42;16.90;99.90
53035;DHT22;38923;53.236;6.506;2022-07-10T11:54:17;16.90;99.90
53035;DHT22;38923;53.236;6.506;2022-07-10T11:56:51;16.90;99.90
53035;DHT22;38923;53.236;6.506;2022-07-10T11:59:18;16.90;99.90
53035;DHT22;38923;53.236;6.506;2022-07-10T12:01:48;16.90;99.90
53035;DHT22;38923;53.236;6.506;2022-07-10T12:04:16;16.90;99.90
53035;DHT22;38923;53.236;6.506;2022-07-10T12:06:44;16.90;99.90
53035;DHT22;38923;53.236;6.506;2022-07-10T12:09:14;16.90;99.90
53035;DHT22;38923;53.236;6.506;2022-07-10T12:11:41;16.90;99.90
53035;DHT22;38923;53.236;6.506;2022-07-10T12:14:13;17.00;99.90
53035;DHT22;38923;53.236;6.506;2022-07-10T12:16:42;17.00;99.90
53035;DHT22;38923;53.236;6.506;2022-07-10T12:19:09;17.00;99.90
53035;DHT22;38923;53.236;6.506;2022-07-10T12:21:36;17.00;99.90
53035;DHT22;38923;53.236;6.506;2022-07-10T12:24:03;17.00;99.90
53035;DHT22;38923;53.236;6.506;2022-07-10T12:26:34;17.10;99.90
53035;DHT22;38923;53.236;6.506;2022-07-10T12:29:00;17.10;99.90
53035;DHT22;38923;53.236;6.506;2022-07-10T12:31:28;17.10;99.90
53035;DHT22;38923;53.236;6.506;2022-07-10T12:33:56;17.00;99.90
53035;DHT22;38923;53.236;6.506;2022-07-10T12:36:26;17.00;99.90
53035;DHT22;38923;53.236;6.506;2022-07-10T12:38:56;17.00;99.90
53035;DHT22;38923;53.236;6.506;2022-07-10T12:41:24;17.00;99.90
53035;DHT22;38923;53.236;6.506;2022-07-10T12:43:51;16.90;99.90
53035;DHT22;38923;53.236;6.506;2022-07-10T12:46:19;16.80;99.90
53035;DHT22;38923;53.236;6.506;2022-07-10T12:49:04;16.80;99.90
53035;DHT22;38923;53.236;6.506;2022-07-10T12:51:33;16.70;99.90
53035;DHT22;38923;53.236;6.506;2022-07-10T12:53:59;16.70;99.90
53035;DHT22;38923;53.236;6.506;2022-07-10T12:56:36;16.70;99.90
53035;DHT22;38923;53.236;6.506;2022-07-10T12:59:11;16.60;99.90
53035;DHT22;38923;53.236;6.506;2022-07-10T13:01:40;16.50;99.90
53035;DHT22;38923;53.236;6.506;2022-07-10T13:04:06;16.40;99.90
53035;DHT22;38923;53.236;6.506;2022-07-10T13:06:34;16.30;99.90
53035;DHT22;38923;53.236;6.506;2022-07-10T13:09:03;16.20;99.90
53035;DHT22;38923;53.236;6.506;2022-07-10T13:11:29;16.10;99.90
53035;DHT22;38923;53.236;6.506;2022-07-10T13:13:54;16.10;99.90
53035;DHT22;38923;53.236;6.506;2022-07-10T13:16:21;16.10;99.90
53035;DHT22;38923;53.236;6.506;2022-07-10T13:18:48;16.20;99.90
53035;DHT22;38923;53.236;6.506;2022-07-10T13:21:14;16.10;99.90
53035;DHT22;38923;53.236;6.506;2022-07-10T13:23:40;16.10;99.90
53035;DHT22;38923;53.236;6.506;2022-07-10T13:26:07;16.00;99.90
53035;DHT22;38923;53.236;6.506;2022-07-10T13:28:34;16.00;99.90
53035;DHT22;38923;53.236;6.506;2022-07-10T13:30:59;16.10;99.90
53035;DHT22;38923;53.236;6.506;2022-07-10T13:33:26;16.10;99.90
53035;DHT22;38923;53.236;6.506;2022-07-10T13:35:53;16.20;99.90
53035;DHT22;38923;53.236;6.506;2022-07-10T13:38:19;16.20;99.90
53035;DHT22;38923;53.236;6.506;2022-07-10T13:40:46;16.40;99.90
53035;DHT22;38923;53.236;6.506;2022-07-10T13:43:13;16.40;99.90
53035;DHT22;38923;53.236;6.506;2022-07-10T13:45:39;16.50;99.90
53035;DHT22;38923;53.236;6.506;2022-07-10T13:48:14;16.50;99.90
53035;DHT22;38923;53.236;6.506;2022-07-10T13:50:41;16.60;99.90
53035;DHT22;38923;53.236;6.506;2022-07-10T13:53:07;16.60;99.90
53035;DHT22;38923;53.236;6.506;2022-07-10T13:55:34;16.60;99.90
53035;DHT22;38923;53.236;6.506;2022-07-10T13:58:00;16.70;99.90
53035;DHT22;38923;53.236;6.506;2022-07-10T14:00:26;16.80;99.90
53035;DHT22;38923;53.236;6.506;2022-07-10T14:02:52;16.90;99.90
53035;DHT22;38923;53.236;6.506;2022-07-10T14:05:22;16.90;99.90
53035;DHT22;38923;53.236;6.506;2022-07-10T14:07:47;16.90;99.90
53035;DHT22;38923;53.236;6.506;2022-07-10T14:10:13;17.00;99.90
53035;DHT22;38923;53.236;6.506;2022-07-10T14:12:40;17.10;99.90
53035;DHT22;38923;53.236;6.506;2022-07-10T14:15:06;17.10;99.90
53035;DHT22;38923;53.236;6.506;2022-07-10T14:17:32;17.00;99.90
53035;DHT22;38923;53.236;6.506;2022-07-10T14:19:57;17.10;99.90
53035;DHT22;38923;53.236;6.506;2022-07-10T14:22:23;17.10;99.90
53035;DHT22;38923;53.236;6.506;2022-07-10T14:24:50;17.20;99.90
53035;DHT22;38923;53.236;6.506;2022-07-10T14:27:17;17.30;99.90
53035;DHT22;38923;53.236;6.506;2022-07-10T14:29:43;17.30;99.90
53035;DHT22;38923;53.236;6.506;2022-07-10T14:32:09;17.40;99.90
53035;DHT22;38923;53.236;6.506;2022-07-10T14:34:35;17.50;99.90
53035;DHT22;38923;53.236;6.506;2022-07-10T14:37:01;17.50;99.90
53035;DHT22;38923;53.236;6.506;2022-07-10T14:39:27;17.60;99.90
53035;DHT22;38923;53.236;6.506;2022-07-10T14:41:53;17.60;99.90
53035;DHT22;38923;53.236;6.506;2022-07-10T14:44:19;17.60;99.90
53035;DHT22;38923;53.236;6.506;2022-07-10T14:46:44;17.60;99.90
53035;DHT22;38923;53.236;6.506;2022-07-10T14:49:10;17.60;99.90
53035;DHT22;38923;53.236;6.506;2022-07-10T14:51:36;17.60;99.90
53035;DHT22;38923;53.236;6.506;2022-07-10T14:54:03;17.60;99.90
53035;DHT22;38923;53.236;6.506;2022-07-10T14:56:28;17.60;99.90
53035;DHT22;38923;53.236;6.506;2022-07-10T14:58:54;17.60;99.90
53035;DHT22;38923;53.236;6.506;2022-07-10T15:01:20;17.60;99.90
53035;DHT22;38923;53.236;6.506;2022-07-10T15:03:45;17.60;99.90
53035;DHT22;38923;53.236;6.506;2022-07-10T15:06:11;17.60;99.90
53035;DHT22;38923;53.236;6.506;2022-07-10T15:08:37;17.70;99.90
53035;DHT22;38923;53.236;6.506;2022-07-10T15:11:02;17.70;99.90
53035;DHT22;38923;53.236;6.506;2022-07-10T15:13:30;17.70;99.90
53035;DHT22;38923;53.236;6.506;2022-07-10T15:15:56;17.70;99.90
53035;DHT22;38923;53.236;6.506;2022-07-10T15:18:22;17.70;99.90
53035;DHT22;38923;53.236;6.506;2022-07-10T15:20:48;17.70;99.90
53035;DHT22;38923;53.236;6.506;2022-07-10T15:23:14;17.80;99.90
53035;DHT22;38923;53.236;6.506;2022-07-10T15:25:41;17.70;99.90
53035;DHT22;38923;53.236;6.506;2022-07-10T15:28:10;17.80;99.90
53035;DHT22;38923;53.236;6.506;2022-07-10T15:30:36;17.80;99.90
53035;DHT22;38923;53.236;6.506;2022-07-10T15:33:03;17.80;99.90
53035;DHT22;38923;53.236;6.506;2022-07-10T15:35:30;17.80;99.90
53035;DHT22;38923;53.236;6.506;2022-07-10T15:37:56;17.80;99.90
53035;DHT22;38923;53.236;6.506;2022-07-10T15:40:22;17.80;99.90
53035;DHT22;38923;53.236;6.506;2022-07-10T15:42:48;17.80;99.90
53035;DHT22;38923;53.236;6.506;2022-07-10T15:45:14;17.80;99.90
53035;DHT22;38923;53.236;6.506;2022-07-10T15:47:39;17.80;99.90
53035;DHT22;38923;53.236;6.506;2022-07-10T15:50:05;17.80;99.90
53035;DHT22;38923;53.236;6.506;2022-07-10T15:52:31;17.80;99.90